Time;durP1;ratioP1;P1;durP2;ratioP2;P2;SDS_P1;SDS_P2;PMS_P1;PMS_P2;Temp;Humidity;BMP_temperature;BMP_pressure;BME280_temperature;BME280_humidity;BME280_pressure;Samples;Min_cycle;Max_cycle;Signal;HPM_P1;HPM_P2
2021/04/02 00:01:47;;;;;;;11.63;6.20;;;8.70;74.40;;;9.97;57.60;101371.28;5099741;28;20515;-79
2021/04/02 00:04:14;;;;;;;13.00;5.97;;;8.70;74.80;;;9.95;57.93;101372.47;5099213;28;20051;-80
2021/04/02 00:06:41;;;;;;;10.02;5.95;;;8.70;74.90;;;9.89;57.82;101363.06;5099616;28;20082;-80
2021/04/02 00:09:08;;;;;;;13.52;6.90;;;8.60;75.00;;;9.84;58.11;101364.56;5099410;28;20052;-79
2021/04/02 00:11:35;;;;;;;15.10;6.93;;;8.60;75.10;;;9.81;58.14;101364.91;5099277;28;20039;-80
2021/04/02 00:14:02;;;;;;;12.10;6.75;;;8.70;75.20;;;9.77;58.83;101367.06;5098830;28;20040;-80
2021/04/02 00:16:29;;;;;;;15.18;7.28;;;8.60;75.00;;;9.75;58.72;101358.22;5097965;28;20052;-80
2021/04/02 00:18:56;;;;;;;12.95;6.80;;;8.70;75.20;;;9.71;58.66;101354.97;5100162;28;20068;-80
2021/04/02 00:21:22;;;;;;;15.50;6.82;;;8.60;75.40;;;9.74;58.94;101360.06;5099782;28;20044;-80
2021/04/02 00:23:49;;;;;;;13.98;7.28;;;8.60;75.50;;;9.71;58.76;101360.41;5099006;28;20124;-80
2021/04/02 00:26:21;;;;;;;10.43;6.68;;;8.60;75.50;;;9.68;58.74;101360.72;5098505;28;20063;-80
2021/04/02 00:28:50;;;;;;;11.82;7.18;;;8.50;75.70;;;9.65;59.32;101361.03;5099522;28;20063;-80
2021/04/02 00:31:18;;;;;;;13.23;7.38;;;8.50;75.90;;;9.63;59.05;101356.75;5099135;28;20130;-80
2021/04/02 00:33:44;;;;;;;16.25;7.50;;;8.50;76.00;;;9.67;58.69;101359.03;5098909;28;20488;-80
2021/04/02 00:36:11;;;;;;;13.90;7.88;;;8.40;75.90;;;9.68;58.90;101355.28;5098585;28;20066;-79
2021/04/02 00:38:38;;;;;;;17.13;7.82;;;8.30;76.30;;;9.58;58.89;101352.66;5098999;28;20071;-79
2021/04/02 00:41:09;;;;;;;13.48;7.68;;;8.30;76.30;;;9.50;59.13;101351.72;5098561;28;20044;-79
2021/04/02 00:43:39;;;;;;;15.50;7.75;;;8.30;76.80;;;9.46;59.90;101345.78;5098167;28;20039;-79
2021/04/02 00:46:08;;;;;;;12.32;7.40;;;8.30;77.00;;;9.43;60.18;101348.78;5098408;28;20044;-79
2021/04/02 00:48:36;;;;;;;15.93;7.35;;;8.30;76.90;;;9.44;59.85;101345.06;5098920;28;20093;-80
2021/04/02 00:51:05;;;;;;;12.57;6.70;;;8.30;76.80;;;9.53;59.68;101346.00;5098507;28;20399;-80
2021/04/02 00:53:38;;;;;;;14.45;6.50;;;8.30;77.20;;;9.54;59.78;101355.88;5097478;28;20048;-80
2021/04/02 00:56:07;;;;;;;14.00;6.78;;;8.30;77.10;;;9.46;59.75;101350.34;5097386;28;20044;-80
2021/04/02 00:58:35;;;;;;;12.95;6.82;;;8.30;77.30;;;9.47;60.25;101352.91;5098578;28;20548;-79
2021/04/02 01:01:04;;;;;;;15.40;6.40;;;8.30;77.30;;;9.46;60.03;101355.78;5098144;28;20101;-80
2021/04/02 01:03:33;;;;;;;13.40;6.13;;;8.30;77.20;;;9.41;60.30;101352.69;5095910;28;20475;-79
2021/04/02 01:06:05;;;;;;;13.50;6.35;;;8.30;77.50;;;9.31;60.26;101353.63;5098333;28;20064;-80
2021/04/02 01:08:35;;;;;;;;;;;8.20;77.20;;;9.43;59.99;101350.66;5094463;28;20048;-80
2021/04/02 01:11:10;;;;;;;11.20;6.28;;;8.30;77.50;;;9.41;60.74;101353.53;5089709;28;19931;-80
2021/04/02 01:13:40;;;;;;;16.45;6.53;;;8.30;77.30;;;9.39;60.36;101350.97;5096103;28;20044;-80
2021/04/02 01:16:12;;;;;;;11.73;5.75;;;8.30;77.50;;;9.38;60.29;101349.25;5098228;28;20086;-80
2021/04/02 01:18:48;;;;;;;14.68;6.00;;;8.30;77.70;;;9.37;61.02;101350.28;5093054;28;20083;-80
2021/04/02 01:21:23;;;;;;;12.32;6.20;;;8.30;77.70;;;9.42;60.67;101343.50;5077651;28;20049;-80
2021/04/02 01:24:33;;;;;;;12.23;5.90;;;8.30;77.80;;;9.37;60.40;101339.41;5076752;28;20049;-80
2021/04/02 01:27:21;;;;;;;10.80;6.22;;;8.30;78.00;;;9.39;60.56;101345.53;4999185;28;20073;-80
2021/04/02 01:29:54;;;;;;;16.17;6.53;;;8.30;78.10;;;9.43;60.68;101342.53;5076568;28;20056;-80
2021/04/02 01:32:27;;;;;;;11.70;6.55;;;8.30;78.20;;;9.35;61.41;101346.88;5076483;28;20057;-80
2021/04/02 01:35:00;;;;;;;12.93;6.40;;;8.30;78.10;;;9.32;61.32;101349.88;5077100;28;20045;-80
2021/04/02 01:37:37;;;;;;;11.43;6.07;;;8.30;78.10;;;9.33;61.22;101350.75;5076722;28;20037;-80
2021/04/02 01:40:10;;;;;;;13.35;5.78;;;8.30;78.10;;;9.31;61.65;101353.63;5076479;28;20056;-80
2021/04/02 01:42:41;;;;;;;14.45;6.57;;;8.30;78.00;;;9.25;61.60;101348.78;5076134;28;20149;-80
2021/04/02 01:45:13;;;;;;;14.93;6.53;;;8.30;78.20;;;9.26;61.29;101345.06;5076124;28;20040;-80
2021/04/02 01:47:42;;;;;;;17.27;6.20;;;8.30;78.10;;;9.28;61.77;101353.06;5076219;28;20040;-80
2021/04/02 01:50:15;;;;;;;12.82;5.97;;;8.40;78.00;;;9.26;61.45;101349.66;5077446;28;20090;-80
2021/04/02 01:52:45;;;;;;;14.07;6.22;;;8.30;78.10;;;9.25;61.66;101348.78;5075214;28;20534;-79
2021/04/02 01:55:15;;;;;;;15.20;6.40;;;8.30;78.00;;;9.24;61.74;101346.25;5075829;28;20083;-79
2021/04/02 01:57:46;;;;;;;19.48;6.45;;;8.30;78.20;;;9.23;61.41;101342.66;5075902;28;20078;-80
2021/04/02 02:00:23;;;;;;;13.10;6.35;;;8.20;78.10;;;9.22;61.72;101340.13;5075590;28;20044;-80
2021/04/02 02:02:54;;;;;;;10.75;5.90;;;8.20;78.30;;;9.23;61.29;101345.38;5075043;28;20056;-79
2021/04/02 02:05:23;;;;;;;11.20;5.72;;;8.10;78.50;;;9.17;61.70;101346.84;5075005;28;20105;-79
2021/04/02 02:07:53;;;;;;;15.20;6.45;;;8.10;78.60;;;9.24;61.55;101349.81;5075649;28;20047;-80
2021/04/02 02:10:23;;;;;;;14.85;6.65;;;8.00;79.00;;;9.20;61.35;101346.56;5075488;28;20045;-80
2021/04/02 02:12:55;;;;;;;12.85;6.90;;;8.00;79.10;;;9.12;61.93;101349.19;5074536;28;20049;-80
2021/04/02 02:15:38;;;;;;;17.40;6.95;;;7.90;79.50;;;9.15;61.81;101348.03;5075675;28;20473;-80
2021/04/02 02:18:12;;;;;;;14.40;7.18;;;7.90;79.60;;;9.14;61.61;101351.75;5074968;28;20075;-80
2021/04/02 02:20:44;;;;;;;17.92;7.28;;;7.90;79.80;;;9.11;62.28;101349.34;5075853;28;20476;-80
2021/04/02 02:23:14;;;;;;;16.73;7.25;;;8.00;79.80;;;9.10;61.99;101350.34;5074588;28;20111;-80
2021/04/02 02:25:41;;;;;;;16.10;7.50;;;8.00;79.80;;;9.13;62.43;101350.88;5074793;28;20052;-81
2021/04/02 02:28:10;;;;;;;15.10;7.30;;;8.00;80.10;;;9.12;62.66;101345.59;5075461;28;20066;-80
2021/04/02 02:30:39;;;;;;;21.73;7.68;;;8.00;80.00;;;9.07;62.52;101350.66;5075441;28;20062;-80
2021/04/02 02:33:14;;;;;;;17.27;7.22;;;8.10;80.10;;;9.05;62.61;101350.81;5075015;28;20161;-80
2021/04/02 02:35:51;;;;;;;14.43;6.93;;;8.20;79.70;;;9.06;63.02;101355.22;5076223;28;20064;-80
2021/04/02 02:38:18;;;;;;;15.57;7.32;;;8.10;79.70;;;9.11;62.37;101347.47;5076122;28;20112;-80
2021/04/02 02:40:47;;;;;;;13.77;6.68;;;8.10;79.80;;;9.05;62.42;101349.97;5075651;28;20112;-80
2021/04/02 02:43:17;;;;;;;14.07;7.30;;;8.10;79.80;;;8.97;63.31;101354.31;5095088;28;20043;-80
2021/04/02 02:45:45;;;;;;;12.88;6.25;;;8.10;79.60;;;9.03;63.33;101352.00;5095640;28;20044;-81
2021/04/02 02:48:13;;;;;;;19.00;6.85;;;8.10;79.90;;;8.93;63.00;101355.63;5097236;28;20110;-80
2021/04/02 02:50:46;;;;;;;14.57;6.70;;;8.10;79.70;;;9.00;63.27;101356.72;5096923;28;20527;-80
2021/04/02 02:53:17;;;;;;;18.40;6.63;;;8.20;79.80;;;9.00;63.51;101355.84;5095121;28;20076;-81
2021/04/02 02:55:48;;;;;;;13.85;6.05;;;8.20;79.80;;;9.01;62.85;101352.13;5095537;28;20055;-81
2021/04/02 02:58:24;;;;;;;13.90;6.35;;;8.20;79.70;;;8.99;63.08;101352.28;5095602;28;20055;-80
2021/04/02 03:00:54;;;;;;;17.67;7.35;;;8.20;79.80;;;8.98;63.71;101347.00;5095421;28;20074;-81
2021/04/02 03:03:22;;;;;;;16.65;7.65;;;8.20;79.90;;;8.97;63.27;101351.59;5096643;28;20052;-80
2021/04/02 03:05:58;;;;;;;15.50;7.05;;;8.20;79.80;;;9.05;63.02;101355.41;5095378;28;20044;-81
2021/04/02 03:08:39;;;;;;;16.60;7.93;;;8.20;80.00;;;9.03;63.10;101347.41;5095439;28;20111;-81
2021/04/02 03:11:09;;;;;;;15.18;7.75;;;8.20;79.80;;;9.04;63.66;101350.97;5095502;28;20051;-80
2021/04/02 03:13:39;;;;;;;15.88;8.45;;;8.20;79.80;;;9.00;63.27;101340.44;5094403;28;20080;-80
2021/04/02 03:16:10;;;;;;;19.55;8.60;;;8.20;80.00;;;8.95;63.94;101353.59;5095884;28;20047;-81
2021/04/02 03:18:38;;;;;;;15.38;8.15;;;8.20;79.80;;;9.00;63.70;101350.41;5095925;28;20468;-80
2021/04/02 03:21:10;;;;;;;16.05;7.63;;;8.20;79.90;;;8.97;63.21;101345.31;5095284;28;20051;-81
2021/04/02 03:23:41;;;;;;;18.30;8.88;;;8.20;79.90;;;9.00;63.21;101345.88;5094671;28;20048;-80
2021/04/02 03:26:08;;;;;;;16.05;8.85;;;8.20;79.40;;;8.97;63.63;101354.31;5095068;28;20048;-80
2021/04/02 03:28:37;;;;;;;13.95;8.80;;;8.20;80.00;;;8.99;63.29;101348.72;5094866;28;20089;-81
2021/04/02 03:31:04;;;;;;;18.27;9.10;;;8.10;80.10;;;8.96;63.52;101349.88;5095079;28;20135;-80
2021/04/02 03:33:44;;;;;;;19.90;9.40;;;8.20;80.10;;;8.88;63.79;101347.06;5094989;28;20048;-80
2021/04/02 03:36:21;;;;;;;21.90;10.10;;;8.20;79.80;;;8.95;63.81;101363.63;5094901;28;20068;-80
2021/04/02 03:38:50;;;;;;;18.60;9.73;;;8.10;80.00;;;8.89;63.51;101359.66;5094800;28;20073;-81
2021/04/02 03:41:30;;;;;;;17.88;10.82;;;8.10;80.00;;;8.86;63.94;101364.53;5094985;28;20066;-80
2021/04/02 03:44:00;;;;;;;20.13;10.55;;;8.00;80.00;;;8.88;64.06;101363.34;5096258;28;20451;-80
2021/04/02 03:46:29;;;;;;;26.98;12.07;;;8.10;80.30;;;8.89;63.74;101358.78;5096233;28;20037;-80
2021/04/02 03:49:02;;;;;;;24.20;13.68;;;8.00;80.30;;;8.89;63.81;101354.22;5094968;28;20078;-81
2021/04/02 03:51:35;;;;;;;26.77;14.30;;;8.00;80.40;;;8.89;63.47;101362.38;5094745;28;20052;-80
2021/04/02 03:54:06;;;;;;;33.10;13.43;;;8.00;80.60;;;8.87;63.25;101361.66;5094510;28;20055;-80
2021/04/02 03:56:37;;;;;;;30.98;13.15;;;7.90;80.40;;;8.89;63.66;101365.09;5094889;28;20052;-80
2021/04/02 03:59:08;;;;;;;26.95;13.43;;;7.90;80.40;;;8.90;63.24;101361.34;5094726;28;20056;-81
2021/04/02 04:01:43;;;;;;;22.80;11.68;;;7.90;80.50;;;8.93;63.83;101357.47;5096337;28;20056;-80
2021/04/02 04:04:13;;;;;;;;;;;7.90;81.00;;;8.91;63.54;101367.63;5098192;28;20044;-81
2021/04/02 04:06:48;;;;;;;22.25;12.02;;;7.90;80.80;;;8.87;63.75;101363.50;5097862;28;20364;-81
2021/04/02 04:09:17;;;;;;;24.75;11.38;;;7.90;81.10;;;8.86;63.39;101369.97;5098620;28;20449;-81
2021/04/02 04:11:49;;;;;;;21.45;10.77;;;7.90;80.70;;;8.81;63.74;101367.69;5096111;28;20055;-80
2021/04/02 04:14:24;;;;;;;23.05;10.30;;;7.90;80.90;;;8.83;63.92;101372.97;5096670;28;20519;-80
2021/04/02 04:16:55;;;;;;;19.73;9.27;;;7.90;80.60;;;8.79;63.60;101369.69;5096468;28;20508;-81
2021/04/02 04:19:24;;;;;;;23.48;8.95;;;7.90;80.60;;;8.82;63.74;101372.13;5096346;28;20052;-81
2021/04/02 04:21:57;;;;;;;21.00;10.05;;;7.90;80.40;;;8.83;63.43;101376.53;5096197;28;20040;-81
2021/04/02 04:24:29;;;;;;;22.52;10.43;;;7.90;80.10;;;8.83;63.38;101381.94;5095856;28;20050;-81
2021/04/02 04:26:58;;;;;;;30.00;11.45;;;7.90;80.20;;;8.83;63.64;101376.53;5098115;28;20036;-80
2021/04/02 04:29:34;;;;;;;21.65;11.32;;;7.90;80.10;;;8.77;63.15;101386.13;5098173;28;20048;-80
2021/04/02 04:32:02;;;;;;;22.88;11.43;;;7.90;80.30;;;8.77;64.12;101388.00;5097225;28;20055;-80
2021/04/02 04:34:32;;;;;;;23.13;10.45;;;7.90;80.20;;;8.78;63.61;101384.28;5097244;28;20099;-80
2021/04/02 04:37:00;;;;;;;19.80;9.70;;;7.90;80.00;;;8.75;63.58;101390.00;5096077;28;20044;-80
2021/04/02 04:39:30;;;;;;;21.55;11.27;;;7.90;80.30;;;8.73;63.29;101386.59;5097928;28;20951;-80
2021/04/02 04:41:59;;;;;;;23.85;9.50;;;7.90;80.10;;;8.70;63.57;101386.88;5096854;28;20051;-80
2021/04/02 04:44:28;;;;;;;21.90;9.35;;;7.80;80.10;;;8.60;64.03;101381.50;5095621;28;20044;-80
2021/04/02 04:46:55;;;;;;;21.10;9.85;;;7.80;80.50;;;8.67;63.70;101385.34;5097107;28;20048;-80
2021/04/02 04:49:22;;;;;;;21.83;9.40;;;7.80;80.20;;;8.68;63.81;101383.47;5097161;28;20059;-80
2021/04/02 04:51:51;;;;;;;18.20;8.95;;;7.80;80.40;;;8.67;63.47;101385.34;5097078;28;20048;-80
2021/04/02 04:54:26;;;;;;;15.20;8.65;;;7.80;80.20;;;8.66;63.91;101380.06;5096816;28;20040;-80
2021/04/02 04:56:55;;;;;;;20.63;8.77;;;7.80;80.60;;;8.65;63.90;101383.78;5095765;28;20112;-80
2021/04/02 04:59:23;;;;;;;21.80;9.68;;;7.70;80.60;;;8.65;64.17;101383.78;5096967;28;20260;-80
2021/04/02 05:01:54;;;;;;;26.45;8.40;;;7.80;80.80;;;8.64;63.50;101382.06;5096629;28;20044;-80
2021/04/02 05:04:22;;;;;;;17.13;8.57;;;7.80;80.60;;;8.59;63.99;101380.66;5096126;28;20051;-80
2021/04/02 05:06:56;;;;;;;23.48;8.10;;;7.70;81.00;;;8.56;64.00;101391.81;5096573;28;20115;-80
2021/04/02 05:09:24;;;;;;;21.75;8.50;;;7.80;80.90;;;8.57;64.13;101387.25;5096177;28;20055;-81
2021/04/02 05:11:53;;;;;;;20.30;6.75;;;7.70;80.70;;;8.55;63.98;101389.28;5095766;28;20507;-81
2021/04/02 05:14:22;;;;;;;16.50;6.18;;;7.70;80.80;;;8.55;63.76;101387.41;5096663;28;20043;-80
2021/04/02 05:16:50;;;;;;;14.30;6.07;;;7.70;80.70;;;8.55;63.56;101395.53;5097218;28;20047;-80
2021/04/02 05:19:18;;;;;;;18.52;7.50;;;7.60;80.60;;;8.49;63.49;101388.00;5096385;28;20052;-80
2021/04/02 05:21:46;;;;;;;18.17;6.10;;;7.60;80.80;;;8.50;63.35;101402.41;5096561;28;20483;-81
2021/04/02 05:24:14;;;;;;;25.83;8.10;;;7.60;80.70;;;8.43;64.04;101390.44;5096262;28;20072;-81
2021/04/02 05:26:41;;;;;;;16.30;7.07;;;7.60;80.80;;;8.45;63.84;101397.41;5096435;28;20089;-81
2021/04/02 05:29:08;;;;;;;23.33;7.07;;;7.60;81.00;;;8.44;63.70;101398.44;5096393;28;20066;-80
2021/04/02 05:31:35;;;;;;;24.45;7.13;;;7.50;81.00;;;8.44;64.03;101401.16;5096032;28;20085;-80
2021/04/02 05:34:02;;;;;;;19.90;6.90;;;7.50;81.10;;;8.45;63.47;101396.56;5094376;28;20059;-80
2021/04/02 05:36:28;;;;;;;17.67;7.00;;;7.50;81.10;;;8.38;63.86;101404.44;5096373;28;20106;-81
2021/04/02 05:38:55;;;;;;;24.58;7.88;;;7.40;81.60;;;8.35;64.05;101407.44;5095680;28;20044;-80
2021/04/02 05:41:38;;;;;;;16.52;7.07;;;7.40;81.70;;;8.32;64.42;101410.44;5096284;28;20090;-81
2021/04/02 05:44:10;;;;;;;17.17;7.68;;;7.40;81.40;;;8.30;64.01;101418.72;5096157;28;20480;-80
2021/04/02 05:46:40;;;;;;;22.77;7.13;;;7.40;81.60;;;8.27;64.63;101413.59;5096166;28;20047;-80
2021/04/02 05:49:07;;;;;;;20.33;7.80;;;7.40;81.80;;;8.25;64.71;101414.75;5095638;28;20124;-80
2021/04/02 05:51:35;;;;;;;17.38;6.93;;;7.40;81.70;;;8.28;64.51;101407.19;5096097;28;20036;-80
2021/04/02 05:54:02;;;;;;;18.00;7.07;;;7.40;81.80;;;8.28;64.65;101411.72;5095560;28;20043;-81
2021/04/02 05:56:30;;;;;;;21.45;7.15;;;7.40;81.90;;;8.27;65.13;101415.47;5096198;28;20119;-80
2021/04/02 05:58:57;;;;;;;19.02;8.50;;;7.40;82.00;;;8.18;64.90;101418.03;5095232;28;20061;-80
2021/04/02 06:01:24;;;;;;;25.50;8.30;;;7.40;82.10;;;8.17;65.37;101421.75;5095693;28;20504;-80
2021/04/02 06:03:51;;;;;;;24.15;9.00;;;7.40;82.30;;;8.22;64.90;101424.91;5095418;28;20044;-80
2021/04/02 06:06:18;;;;;;;20.40;7.88;;;7.40;82.40;;;8.21;65.12;101415.03;5095983;28;20067;-80
2021/04/02 06:08:47;;;;;;;19.58;8.63;;;7.40;83.10;;;8.21;65.46;101420.47;5095938;28;20131;-81
2021/04/02 06:11:15;;;;;;;20.83;8.20;;;7.40;82.90;;;8.23;65.93;101415.75;5093501;28;20059;-82
2021/04/02 06:13:42;;;;;;;17.65;8.13;;;7.40;83.00;;;8.23;65.77;101417.59;5093403;28;20063;-81
2021/04/02 06:16:09;;;;;;;22.25;8.15;;;7.40;82.90;;;8.18;66.20;101414.47;5093107;28;20044;-81
2021/04/02 06:18:41;;;;;;;21.80;8.80;;;7.40;83.00;;;8.20;65.81;101409.75;5094708;28;20565;-81
2021/04/02 06:21:09;;;;;;;21.05;8.63;;;7.30;83.30;;;8.19;66.33;101411.63;5099514;28;20044;-81
2021/04/02 06:23:37;;;;;;;21.55;9.07;;;7.30;83.70;;;8.18;65.97;101415.31;5097566;28;20047;-83
2021/04/02 06:26:09;;;;;;;24.27;10.05;;;7.40;83.20;;;8.26;65.59;101408.31;5098177;28;20048;-81
2021/04/02 06:28:38;;;;;;;22.40;8.93;;;7.40;83.10;;;8.27;66.13;101420.88;5099422;28;20132;-81
2021/04/02 06:31:08;;;;;;;21.55;8.57;;;7.50;82.80;;;8.30;66.29;101418.72;5099380;28;20035;-82
2021/04/02 06:33:39;;;;;;;19.25;8.48;;;7.50;82.90;;;8.31;65.78;101408.72;5098289;28;20047;-82
2021/04/02 06:36:14;;;;;;;18.15;8.35;;;7.50;82.80;;;8.29;65.92;101424.31;5099203;28;20507;-81
2021/04/02 06:38:44;;;;;;;21.73;8.70;;;7.40;83.10;;;8.23;65.71;101423.88;5099476;28;20048;-81
2021/04/02 06:41:12;;;;;;;23.00;8.50;;;7.40;83.40;;;8.23;65.97;101420.31;5099771;28;20535;-81
2021/04/02 06:43:44;;;;;;;18.83;9.07;;;7.50;83.30;;;8.28;66.06;101415.31;5098435;28;20040;-81
2021/04/02 06:46:14;;;;;;;21.83;8.88;;;7.40;82.90;;;8.30;66.25;101423.28;5098668;28;20052;-82
2021/04/02 06:48:41;;;;;;;18.88;8.20;;;7.50;83.50;;;8.31;66.40;101414.16;5099238;28;20044;-82
2021/04/02 06:51:14;;;;;;;21.77;8.57;;;7.50;83.40;;;8.35;66.28;101423.72;5100002;28;20400;-82
2021/04/02 06:53:42;;;;;;;22.30;8.48;;;7.60;83.20;;;8.35;66.27;101431.84;5097371;28;20036;-82
2021/04/02 06:56:11;;;;;;;19.35;8.82;;;7.60;82.70;;;8.35;65.82;101431.84;5099188;28;20062;-82
2021/04/02 06:58:39;;;;;;;21.33;9.38;;;7.60;82.60;;;8.37;66.06;101433.41;5099623;28;20036;-82
2021/04/02 07:01:10;;;;;;;15.45;8.82;;;7.60;82.80;;;8.32;66.01;101432.13;5094366;28;20460;-81
2021/04/02 07:03:38;;;;;;;19.08;8.40;;;7.70;82.90;;;8.30;66.44;101440.44;5094267;28;20046;-82
2021/04/02 07:06:06;;;;;;;18.50;8.95;;;7.70;82.90;;;8.30;66.25;101440.44;5090418;28;20071;-83
2021/04/02 07:08:34;;;;;;;20.58;8.25;;;7.70;82.80;;;8.34;66.32;101435.53;5098431;28;20106;-82
2021/04/02 07:11:01;;;;;;;20.60;8.20;;;7.80;82.60;;;8.38;66.11;101442.41;5096739;28;20415;-81
2021/04/02 07:13:34;;;;;;;16.52;8.38;;;7.80;82.30;;;8.41;65.51;101436.66;5096079;28;20048;-81
2021/04/02 07:16:02;;;;;;;17.17;8.13;;;7.70;82.10;;;8.38;66.28;101436.97;5095973;28;20052;-82
2021/04/02 07:18:29;;;;;;;18.92;8.40;;;7.70;82.80;;;8.41;66.07;101439.38;5097448;28;20106;-82
2021/04/02 07:20:58;;;;;;;18.80;8.23;;;7.80;82.40;;;8.41;66.25;101442.09;5098409;28;20036;-82
2021/04/02 07:23:27;;;;;;;16.13;8.25;;;7.80;82.70;;;8.38;66.65;101436.97;5096936;28;20504;-81
2021/04/02 07:25:55;;;;;;;19.50;8.60;;;7.80;82.90;;;8.44;65.62;101449.13;5096613;28;20079;-83
2021/04/02 07:28:24;;;;;;;15.68;8.20;;;7.80;82.60;;;8.45;66.29;101448.13;5097075;28;20413;-82
2021/04/02 07:30:52;;;;;;;16.02;7.60;;;7.80;82.40;;;8.36;65.72;101450.69;5097592;28;20051;-83
2021/04/02 07:33:21;;;;;;;18.42;9.35;;;7.80;81.70;;;8.33;66.25;101455.53;5098339;28;20044;-83
2021/04/02 07:35:56;;;;;;;14.43;8.02;;;7.60;82.40;;;8.39;65.41;101454.94;5098145;28;20111;-83
2021/04/02 07:38:29;;;;;;;20.27;8.90;;;7.70;82.40;;;8.35;65.97;101459.81;5098919;28;20040;-86
2021/04/02 07:40:58;;;;;;;18.02;8.80;;;7.70;82.40;;;8.38;65.60;101454.09;5092854;28;20032;-82
2021/04/02 07:43:33;;;;;;;19.45;7.95;;;7.70;82.50;;;8.39;65.27;101450.38;5091337;28;20219;-82
2021/04/02 07:46:11;;;;;;;19.52;9.15;;;7.70;82.40;;;8.39;65.59;101457.66;5083970;28;20044;-81
2021/04/02 07:48:39;;;;;;;18.00;8.00;;;7.70;82.20;;;8.39;66.23;101449.53;5094311;28;20038;-82
2021/04/02 07:51:06;;;;;;;19.75;8.82;;;7.70;82.40;;;8.39;65.39;101455.78;5094626;28;20047;-82
2021/04/02 07:53:45;;;;;;;16.00;7.80;;;7.70;82.10;;;8.40;65.19;101452.09;5095599;28;20055;-82
2021/04/02 07:56:15;;;;;;;16.80;7.95;;;7.70;82.10;;;8.41;65.33;101447.50;5096690;28;20587;-82
2021/04/02 07:58:47;;;;;;;15.98;7.75;;;7.70;82.00;;;8.41;65.53;101452.94;5096063;28;20036;-82
2021/04/02 08:01:18;;;;;;;19.60;8.25;;;7.80;82.30;;;8.38;65.32;101458.69;5094610;28;20059;-82
2021/04/02 08:03:46;;;;;;;18.13;7.47;;;7.80;82.20;;;8.38;65.59;101458.69;5075374;28;20048;-82
2021/04/02 08:06:33;;;;;;;19.27;8.00;;;7.80;81.60;;;8.37;65.61;101462.38;5077010;28;20045;-82
2021/04/02 08:09:03;;;;;;;24.25;7.72;;;7.90;81.70;;;8.41;66.06;101463.78;5096340;28;20040;-82
2021/04/02 08:11:32;;;;;;;13.02;7.35;;;7.90;81.70;;;8.43;65.56;101467.25;5095619;28;20059;-82
2021/04/02 08:14:02;;;;;;;18.30;8.10;;;7.90;81.20;;;8.46;65.48;101475.09;5094758;28;20078;-82
2021/04/02 08:16:43;;;;;;;19.65;7.78;;;7.90;81.60;;;8.49;65.74;101471.22;5095994;28;20044;-82
2021/04/02 08:19:14;;;;;;;18.80;7.85;;;8.00;81.20;;;8.44;65.52;101468.97;5096318;28;20534;-83
2021/04/02 08:21:45;;;;;;;15.00;7.00;;;8.00;81.10;;;8.48;65.13;101472.25;5095936;28;20048;-82
2021/04/02 08:24:16;;;;;;;17.73;7.72;;;8.00;80.90;;;8.50;65.40;101464.81;5094782;28;20094;-82
2021/04/02 08:26:45;;;;;;;18.10;7.32;;;8.00;80.90;;;8.50;65.51;101473.78;5096216;28;20044;-82
2021/04/02 08:29:14;;;;;;;18.55;7.45;;;8.00;80.90;;;8.52;65.37;101477.22;5095743;28;20515;-82
2021/04/02 08:31:45;;;;;;;15.73;6.88;;;8.00;81.00;;;8.52;65.38;101477.22;5094272;28;20047;-82
2021/04/02 08:34:15;;;;;;;16.38;7.82;;;8.00;80.70;;;8.53;65.26;101478.94;5092662;28;20094;-82
2021/04/02 08:36:42;;;;;;;16.85;7.53;;;8.10;80.90;;;8.51;65.43;101480.94;5085872;28;20043;-84
2021/04/02 08:39:09;;;;;;;18.75;7.75;;;8.00;80.90;;;8.51;65.38;101480.94;5086992;28;20071;-85
2021/04/02 08:41:36;;;;;;;24.23;7.45;;;8.00;80.60;;;8.50;64.65;101473.78;5083786;28;20048;-85
2021/04/02 08:44:04;;;;;;;16.42;7.43;;;8.00;80.50;;;8.50;65.10;101473.78;5091460;28;20067;-85
2021/04/02 08:46:43;;;;;;;18.65;7.70;;;8.00;80.60;;;8.49;65.03;101474.81;5093986;28;20102;-85
2021/04/02 08:49:15;;;;;;;15.63;7.50;;;8.00;80.80;;;8.51;65.01;101480.06;5094109;28;20032;-85
2021/04/02 08:51:48;;;;;;;17.77;6.93;;;8.00;80.30;;;8.51;65.57;101482.78;5092939;28;20053;-85
2021/04/02 08:54:18;;;;;;;19.05;7.85;;;8.00;80.90;;;8.52;65.09;101479.94;5092828;28;20052;-86
2021/04/02 08:56:48;;;;;;;13.87;6.83;;;8.10;80.50;;;8.54;64.84;101480.63;5094246;28;20097;-85
2021/04/02 09:03:23;;;;;;;15.60;7.45;;;8.20;80.10;;;8.55;64.90;101482.34;4949509;28;20207;-86
2021/04/02 09:05:51;;;;;;;14.85;6.97;;;8.20;80.00;;;8.57;64.51;101484.94;4971562;28;20061;-85
2021/04/02 09:08:20;;;;;;;16.80;7.50;;;8.20;79.40;;;8.51;65.32;101494.50;5014517;28;20048;-86
2021/04/02 09:10:47;;;;;;;17.90;6.75;;;8.20;79.80;;;8.55;65.01;101495.06;5030942;28;20528;-85
2021/04/02 09:13:15;;;;;;;10.00;6.00;;;8.20;79.40;;;8.55;64.41;101498.63;5030407;28;20069;-85
2021/04/02 09:15:46;;;;;;;13.90;6.82;;;8.10;79.80;;;8.58;64.77;101487.47;5030480;28;20115;-86
2021/04/02 09:18:15;;;;;;;16.13;6.88;;;8.20;79.70;;;8.57;64.41;101488.50;5030733;28;20139;-85
2021/04/02 09:20:42;;;;;;;16.38;6.63;;;8.20;79.60;;;8.57;64.86;101480.34;5030572;28;20057;-86
2021/04/02 09:23:09;;;;;;;15.85;7.30;;;8.20;79.80;;;8.58;65.17;101484.75;5030267;28;20085;-85
2021/04/02 09:25:39;;;;;;;13.07;5.90;;;8.20;79.90;;;8.63;64.70;101480.78;5030528;28;20111;-86
2021/04/02 09:28:06;;;;;;;13.35;6.72;;;8.30;79.60;;;8.65;64.60;101474.19;5030763;28;20041;-85
2021/04/02 09:30:34;;;;;;;15.65;6.82;;;8.30;79.70;;;8.66;64.67;101485.88;5030727;28;20136;-86
2021/04/02 09:33:01;;;;;;;16.63;7.13;;;8.40;79.10;;;8.67;64.10;101485.75;5030410;28;20538;-86
2021/04/02 09:35:28;;;;;;;13.77;6.35;;;8.30;78.30;;;8.65;64.27;101487.75;5030595;28;20053;-85
2021/04/02 09:37:55;;;;;;;12.52;6.40;;;8.30;78.60;;;8.61;64.33;101487.19;5029955;28;20053;-86
2021/04/02 09:40:28;;;;;;;16.60;6.13;;;8.40;78.30;;;8.65;64.00;101486.91;5090318;28;20068;-85
2021/04/02 09:42:57;;;;;;;14.73;6.75;;;8.40;78.10;;;8.68;63.86;101489.31;5090887;28;20048;-86
2021/04/02 09:45:28;;;;;;;14.45;6.65;;;8.40;78.10;;;8.67;63.94;101482.19;5092970;28;20047;-86
2021/04/02 09:47:56;;;;;;;14.18;6.97;;;8.40;78.30;;;8.69;64.31;101478.31;5091256;28;20127;-86
2021/04/02 09:50:23;;;;;;;19.42;11.32;;;8.40;78.50;;;8.72;64.28;101479.84;5092645;28;20048;-85
2021/04/02 09:52:51;;;;;;;26.85;15.95;;;8.50;78.30;;;8.76;63.29;101478.56;5092303;28;20078;-86
2021/04/02 09:55:18;;;;;;;26.15;16.98;;;8.50;77.60;;;8.79;63.88;101467.41;5091104;28;20056;-85
2021/04/02 09:57:45;;;;;;;30.15;17.90;;;8.60;77.70;;;8.85;63.54;101466.81;5092766;28;20039;-85
2021/04/02 10:00:15;;;;;;;36.55;20.05;;;8.70;77.00;;;8.82;63.65;101466.28;5085110;28;20123;-85
2021/04/02 10:02:42;;;;;;;19.60;11.18;;;8.70;77.50;;;8.85;63.30;101471.38;5092250;28;20043;-85
2021/04/02 10:05:12;;;;;;;28.05;15.13;;;8.70;77.40;;;8.84;63.93;101475.97;5089736;28;20036;-85
2021/04/02 10:07:39;;;;;;;23.40;13.75;;;8.70;77.60;;;8.82;64.18;101471.69;5072404;28;20037;-86
2021/04/02 10:10:08;;;;;;;30.65;18.67;;;8.70;77.60;;;8.83;64.11;101463.38;5072363;28;20090;-85
2021/04/02 10:12:35;;;;;;;39.30;24.33;;;8.70;77.40;;;8.87;63.73;101459.38;5071716;28;20060;-86
2021/04/02 10:15:03;;;;;;;38.33;21.83;;;8.70;77.00;;;8.85;63.36;101464.09;5070949;28;20408;-86
2021/04/02 10:17:29;;;;;;;34.25;20.70;;;8.70;77.00;;;8.83;64.31;101466.09;5071664;28;20127;-85
2021/04/02 10:19:56;;;;;;;33.38;19.98;;;8.80;77.80;;;8.83;65.30;101471.53;5071560;28;20495;-85
2021/04/02 10:22:24;;;;;;;31.52;17.98;;;8.80;78.30;;;8.85;65.12;101461.38;5069915;28;20104;-85
2021/04/02 10:24:51;;;;;;;28.08;17.13;;;8.80;77.80;;;8.83;64.72;101457.94;5070020;28;20076;-86
2021/04/02 10:27:18;;;;;;;31.77;16.45;;;8.80;77.60;;;8.87;64.41;101459.38;5071504;28;20053;-86
2021/04/02 10:29:44;;;;;;;27.88;16.85;;;8.80;77.60;;;8.89;64.23;101461.94;5086612;28;20415;-86
2021/04/02 10:32:12;;;;;;;30.65;18.73;;;8.80;77.50;;;8.91;64.24;101455.38;5090406;28;20063;-85
2021/04/02 10:34:39;;;;;;;42.60;23.23;;;8.90;77.60;;;8.85;64.41;101450.50;5091793;28;20090;-86